createdAt,value
2024-01-14T00:01:03.057Z,99018.03
2024-01-14T00:03:50.166Z,99017.72
2024-01-14T00:06:37.238Z,99010.22
2024-01-14T00:09:24.311Z,99015.50
2024-01-14T00:12:12.675Z,99017.09
2024-01-14T00:14:59.617Z,99012.16
2024-01-14T00:17:46.927Z,99013.72
2024-01-14T00:20:34.037Z,99023.22
2024-01-14T00:23:20.923Z,99021.31
2024-01-14T00:26:07.948Z,99016.50
2024-01-14T00:28:58.385Z,99005.31
2024-01-14T00:31:45.235Z,98998.22
2024-01-14T00:34:32.078Z,98991.69
2024-01-14T00:37:18.919Z,98987.50
2024-01-14T00:40:08.319Z,98986.66
2024-01-14T00:42:56.266Z,98991.59
2024-01-14T00:45:44.245Z,98994.53
2024-01-14T00:48:31.531Z,98978.88
2024-01-14T00:51:18.264Z,98986.69
2024-01-14T00:54:05.165Z,98983.50
2024-01-14T00:56:51.957Z,98980.47
2024-01-14T00:59:38.892Z,98977.34
2024-01-14T01:02:27.131Z,98971.72
2024-01-14T01:05:13.859Z,98970.06
2024-01-14T01:08:00.907Z,98974.75
2024-01-14T01:10:47.744Z,98969.47
2024-01-14T01:13:34.681Z,98972.19
2024-01-14T01:16:21.586Z,98957.59
2024-01-14T01:19:09.992Z,98950.84
2024-01-14T01:21:56.665Z,98951.31
2024-01-14T01:24:43.459Z,98941.38
2024-01-14T01:27:30.828Z,98938.09
2024-01-14T01:30:17.580Z,98930.31
2024-01-14T01:33:04.778Z,98939.94
2024-01-14T01:35:53.337Z,98943.84
2024-01-14T01:38:40.171Z,98946.50
2024-01-14T01:41:27.361Z,98953.41
2024-01-14T01:44:13.947Z,98944.59
2024-01-14T01:47:00.880Z,98925.81
2024-01-14T01:49:47.768Z,98931.13
2024-01-14T01:52:35.879Z,98937.69
2024-01-14T01:55:22.947Z,98929.91
2024-01-14T01:58:10.251Z,98922.22
2024-01-14T02:00:57.290Z,98932.72
2024-01-14T02:03:44.994Z,98934.00
2024-01-14T02:06:34.359Z,98935.53
2024-01-14T02:09:23.022Z,98916.31
2024-01-14T02:12:10.180Z,98906.81
2024-01-14T02:14:56.730Z,98917.81
2024-01-14T02:17:43.894Z,98927.88
2024-01-14T02:20:30.635Z,98924.56
2024-01-14T02:23:23.166Z,98930.75
2024-01-14T02:26:11.844Z,98918.16
2024-01-14T02:28:58.591Z,98919.25
2024-01-14T02:31:45.395Z,98893.75
2024-01-14T02:34:33.783Z,98880.22
2024-01-14T02:37:21.021Z,98872.53
2024-01-14T02:40:08.986Z,98899.38
2024-01-14T02:42:57.175Z,98882.22
2024-01-14T02:45:43.930Z,98877.97
2024-01-14T02:48:31.656Z,98883.72
2024-01-14T02:51:20.079Z,98887.66
2024-01-14T02:54:07.959Z,98870.66
2024-01-14T02:56:55.925Z,98872.13
2024-01-14T02:59:45.199Z,98859.88
2024-01-14T03:02:32.055Z,98855.13
2024-01-14T03:05:19.060Z,98830.66
2024-01-14T03:08:06.615Z,98843.44
2024-01-14T03:10:53.682Z,98832.78
2024-01-14T03:13:40.579Z,98828.34
2024-01-14T03:16:29.011Z,98838.97
2024-01-14T03:19:16.141Z,98840.94
2024-01-14T03:22:02.955Z,98845.94
2024-01-14T03:24:49.842Z,98862.53
2024-01-14T03:27:36.835Z,98868.59
2024-01-14T03:30:23.655Z,98861.28
2024-01-14T03:33:12.166Z,98853.69
2024-01-14T03:35:58.657Z,98858.00
2024-01-14T03:38:45.795Z,98834.25
2024-01-14T03:41:32.604Z,98840.19
2024-01-14T03:44:19.615Z,98835.75
2024-01-14T03:47:06.549Z,98846.75
2024-01-14T03:49:54.430Z,98833.19
2024-01-14T03:52:41.258Z,98821.09
2024-01-14T03:55:28.290Z,98800.44
2024-01-14T03:58:16.108Z,98826.06
2024-01-14T04:01:03.017Z,98815.97
2024-01-14T04:03:49.983Z,98820.97
2024-01-14T04:06:38.392Z,98813.69
2024-01-14T04:09:25.039Z,98811.50
2024-01-14T04:12:12.064Z,98802.81
2024-01-14T04:14:59.542Z,98814.31
2024-01-14T04:17:46.522Z,98818.19
2024-01-14T04:20:33.380Z,98804.84
2024-01-14T04:23:21.789Z,98805.53
2024-01-14T04:26:08.678Z,98802.81
2024-01-14T04:28:55.500Z,98800.88
2024-01-14T04:31:42.376Z,98797.81
2024-01-14T04:34:29.263Z,98800.50
2024-01-14T04:37:16.302Z,98803.09
2024-01-14T04:40:04.654Z,98796.38
2024-01-14T04:42:51.724Z,98790.53
2024-01-14T04:45:38.772Z,98775.25
2024-01-14T04:48:25.876Z,98781.56
2024-01-14T04:51:12.628Z,98782.31
2024-01-14T04:53:59.240Z,98788.19
2024-01-14T04:56:47.476Z,98777.81
2024-01-14T04:59:34.034Z,98774.09
2024-01-14T05:02:21.063Z,98777.75
2024-01-14T05:05:08.150Z,98777.03
2024-01-14T05:07:54.797Z,98771.81
2024-01-14T05:10:41.805Z,98771.06
2024-01-14T05:13:29.998Z,98763.97
2024-01-14T05:16:16.947Z,98763.06
2024-01-14T05:19:03.958Z,98761.94
2024-01-14T05:21:53.533Z,98770.41
2024-01-14T05:24:43.690Z,98766.03
2024-01-14T05:27:30.374Z,98765.38
2024-01-14T05:30:19.996Z,98764.00
2024-01-14T05:33:06.790Z,98755.63
2024-01-14T05:35:53.561Z,98753.59
2024-01-14T05:38:40.212Z,98753.41
2024-01-14T05:41:26.976Z,98753.44
2024-01-14T05:44:13.990Z,98759.59
2024-01-14T05:47:02.220Z,98755.72
2024-01-14T05:49:49.397Z,98753.06
2024-01-14T05:52:36.275Z,98752.09
2024-01-14T05:55:23.602Z,98753.16
2024-01-14T05:58:10.453Z,98749.28
2024-01-14T06:00:57.596Z,98743.16
2024-01-14T06:03:45.514Z,98755.88
2024-01-14T06:06:32.554Z,98753.22
2024-01-14T06:09:19.591Z,98753.75
2024-01-14T06:12:06.813Z,98761.38
2024-01-14T06:14:53.464Z,98755.97
2024-01-14T06:17:40.467Z,98751.78
2024-01-14T06:20:28.725Z,98754.03
2024-01-14T06:23:15.316Z,98753.16
2024-01-14T06:26:02.358Z,98741.72
2024-01-14T06:28:50.542Z,98748.56
2024-01-14T06:31:37.561Z,98750.69
2024-01-14T06:34:24.587Z,98748.03
2024-01-14T06:37:12.845Z,98751.31
2024-01-14T06:39:59.894Z,98738.66
2024-01-14T06:42:47.391Z,98748.94
2024-01-14T06:45:34.132Z,98743.84
2024-01-14T06:48:21.180Z,98745.53
2024-01-14T06:51:07.921Z,98749.06
2024-01-14T06:53:56.285Z,98740.06
2024-01-14T06:56:46.390Z,98736.72
2024-01-14T06:59:33.739Z,98742.66
2024-01-14T07:02:20.429Z,98739.47
2024-01-14T07:05:09.634Z,98742.19
2024-01-14T07:07:56.290Z,98729.94
2024-01-14T07:10:44.879Z,98730.91
2024-01-14T07:13:32.548Z,98725.28
2024-01-14T07:16:19.130Z,98729.06
2024-01-14T07:19:06.333Z,98731.56
2024-01-14T07:21:52.960Z,98729.84
2024-01-14T07:24:39.981Z,98727.47
2024-01-14T07:27:28.530Z,98732.31
2024-01-14T07:30:18.648Z,98733.50
2024-01-14T07:33:06.133Z,98729.91
2024-01-14T07:35:53.038Z,98730.16
2024-01-14T07:38:39.569Z,98732.97
2024-01-14T07:41:26.905Z,98739.66
2024-01-14T07:44:14.951Z,98744.75
2024-01-14T07:47:01.497Z,98737.22
2024-01-14T07:49:50.838Z,98734.84
2024-01-14T07:52:37.998Z,98725.03
2024-01-14T07:55:24.904Z,98727.56
2024-01-14T07:58:12.944Z,98722.78
2024-01-14T08:01:03.066Z,98718.22
2024-01-14T08:03:50.859Z,98714.53
2024-01-14T08:06:37.824Z,98705.88
2024-01-14T08:09:24.856Z,98717.63
2024-01-14T08:12:11.824Z,98719.38
2024-01-14T08:14:58.746Z,98714.59
2024-01-14T08:17:46.679Z,98711.78
2024-01-14T08:20:33.646Z,98713.25
2024-01-14T08:23:21.031Z,98703.63
2024-01-14T08:26:08.131Z,98707.66
2024-01-14T08:28:54.842Z,98714.41
2024-01-14T08:31:43.536Z,98703.88
2024-01-14T08:34:31.648Z,98703.84
2024-01-14T08:37:20.006Z,98703.13
2024-01-14T08:40:07.927Z,98700.56
2024-01-14T08:42:54.926Z,98693.59
2024-01-14T08:45:41.906Z,98696.94
2024-01-14T08:48:28.881Z,98698.81
2024-01-14T08:51:17.070Z,98701.13
2024-01-14T08:54:03.669Z,98694.06
2024-01-14T08:56:50.546Z,98699.59
2024-01-14T08:59:38.667Z,98696.03
2024-01-14T09:02:26.355Z,98701.59
2024-01-14T09:05:13.072Z,98711.22
2024-01-14T09:08:01.254Z,98703.63
2024-01-14T09:10:50.527Z,98708.16
2024-01-14T09:13:37.575Z,98703.69
2024-01-14T09:16:24.227Z,98690.38
2024-01-14T09:19:11.676Z,98690.72
2024-01-14T09:21:59.016Z,98700.09
2024-01-14T09:24:47.079Z,98696.91
2024-01-14T09:27:33.762Z,98695.66
2024-01-14T09:30:20.804Z,98701.31
2024-01-14T09:33:07.683Z,98692.50
2024-01-14T09:35:56.040Z,98686.88
2024-01-14T09:38:42.928Z,98694.97
2024-01-14T09:41:39.342Z,98698.53
2024-01-14T09:44:26.294Z,98703.13
2024-01-14T09:47:15.040Z,98700.69
2024-01-14T09:50:02.797Z,98688.28
2024-01-14T09:52:52.100Z,98688.44
2024-01-14T09:55:39.504Z,98686.91
2024-01-14T09:58:27.619Z,98691.97
2024-01-14T10:01:23.082Z,98688.94
2024-01-14T10:04:10.132Z,98687.31
2024-01-14T10:06:57.147Z,98681.88
2024-01-14T10:09:45.322Z,98677.72
2024-01-14T10:12:32.571Z,98685.66
2024-01-14T10:15:21.598Z,98676.88
2024-01-14T10:18:08.251Z,98672.91
2024-01-14T10:20:55.464Z,98670.75
2024-01-14T10:23:43.717Z,98669.59
2024-01-14T10:26:30.381Z,98665.94
2024-01-14T10:29:18.423Z,98657.34
2024-01-14T10:32:06.529Z,98658.16
2024-01-14T10:34:54.917Z,98644.97
2024-01-14T10:37:41.966Z,98640.91
2024-01-14T10:40:28.739Z,98638.16
2024-01-14T10:43:15.900Z,98639.16
2024-01-14T10:46:04.929Z,98637.47
2024-01-14T10:49:01.060Z,98624.78
2024-01-14T10:51:51.817Z,98610.13
2024-01-14T10:54:44.950Z,98615.72
2024-01-14T10:57:35.949Z,98615.75
2024-01-14T11:00:22.842Z,98616.06
2024-01-14T11:03:11.342Z,98611.78
2024-01-14T11:06:01.005Z,98607.59
2024-01-14T11:08:48.120Z,98603.88
2024-01-14T11:11:42.882Z,98603.22
2024-01-14T11:14:37.343Z,98597.28
2024-01-14T11:17:40.570Z,98596.38
2024-01-14T11:20:38.954Z,98589.72
2024-01-14T11:23:35.952Z,98586.78
2024-01-14T11:26:25.830Z,98584.91
2024-01-14T11:29:12.568Z,98574.03
2024-01-14T11:32:13.328Z,98574.06
2024-01-14T11:35:01.961Z,98563.91
2024-01-14T11:37:49.461Z,98566.72
2024-01-14T11:40:38.803Z,98562.38
2024-01-14T11:43:29.569Z,98556.25
2024-01-14T11:46:36.970Z,98550.66
2024-01-14T11:49:26.062Z,98542.69
2024-01-14T11:52:13.406Z,98541.63
2024-01-14T11:55:00.776Z,98534.88
2024-01-14T11:57:49.381Z,98529.97
2024-01-14T12:00:38.168Z,98520.31
2024-01-14T12:03:25.116Z,98520.25
2024-01-14T12:06:12.150Z,98512.72
2024-01-14T12:09:02.925Z,98506.56
2024-01-14T12:11:49.713Z,98493.72
2024-01-14T12:14:38.764Z,98482.47
2024-01-14T12:17:25.528Z,98471.41
2024-01-14T12:20:13.521Z,98470.94
2024-01-14T12:23:02.919Z,98458.84
2024-01-14T12:25:49.745Z,98454.09
2024-01-14T12:28:36.732Z,98455.63
2024-01-14T12:31:30.792Z,98440.97
2024-01-14T12:34:19.131Z,98437.59
2024-01-14T12:37:10.018Z,98431.06
2024-01-14T12:39:58.507Z,98430.16
2024-01-14T12:42:45.598Z,98426.38
2024-01-14T12:45:32.614Z,98421.50
2024-01-14T12:48:24.238Z,98417.03
2024-01-14T12:51:10.826Z,98419.47
2024-01-14T12:53:57.769Z,98420.13
2024-01-14T12:57:01.722Z,98405.16
2024-01-14T12:59:49.066Z,98412.06
2024-01-14T13:02:36.088Z,98390.44
2024-01-14T13:05:24.775Z,98397.41
2024-01-14T13:08:11.326Z,98388.03
2024-01-14T13:10:58.426Z,98392.44
2024-01-14T13:13:45.474Z,98381.97
2024-01-14T13:16:38.682Z,98389.72
2024-01-14T13:19:29.522Z,98378.25
2024-01-14T13:22:17.993Z,98365.41
2024-01-14T13:25:05.980Z,98367.31
2024-01-14T13:27:56.734Z,98358.22
2024-01-14T13:30:43.997Z,98358.44
2024-01-14T13:33:30.835Z,98360.59
2024-01-14T13:36:17.821Z,98354.56
2024-01-14T13:39:06.375Z,98347.81
2024-01-14T13:41:53.371Z,98349.09
2024-01-14T13:44:40.142Z,98338.31
2024-01-14T13:47:26.749Z,98335.75
2024-01-14T13:50:13.864Z,98333.53
2024-01-14T13:53:00.662Z,98330.38
2024-01-14T13:55:48.935Z,98328.19
2024-01-14T13:58:35.671Z,98321.88
2024-01-14T14:01:22.719Z,98318.25
2024-01-14T14:04:10.684Z,98318.91
2024-01-14T14:06:58.617Z,98323.50
2024-01-14T14:09:45.634Z,98317.50
2024-01-14T14:12:33.716Z,98315.06
2024-01-14T14:15:20.515Z,98308.56
2024-01-14T14:18:13.854Z,98315.53
2024-01-14T14:21:06.365Z,98305.84
2024-01-14T14:23:53.075Z,98303.59
2024-01-14T14:26:40.150Z,98302.47
2024-01-14T14:29:28.392Z,98296.44
2024-01-14T14:32:15.304Z,98296.88
2024-01-14T14:35:02.189Z,98294.72
2024-01-14T14:37:48.824Z,98290.84
2024-01-14T14:40:35.645Z,98287.91
2024-01-14T14:43:22.547Z,98285.75
2024-01-14T14:46:11.045Z,98277.88
2024-01-14T14:48:58.279Z,98279.28
2024-01-14T14:51:45.439Z,98279.19
2024-01-14T14:54:33.690Z,98279.09
2024-01-14T14:57:20.688Z,98268.56
2024-01-14T15:00:10.107Z,98264.91
2024-01-14T15:02:58.421Z,98262.31
2024-01-14T15:05:45.019Z,98265.31
2024-01-14T15:08:32.163Z,98259.75
2024-01-14T15:11:27.557Z,98267.47
2024-01-14T15:14:18.049Z,98256.88
2024-01-14T15:17:06.386Z,98256.41
2024-01-14T15:19:54.688Z,98257.78
2024-01-14T15:22:41.507Z,98256.44
2024-01-14T15:25:28.989Z,98250.09
2024-01-14T15:28:15.520Z,98249.75
2024-01-14T15:31:07.863Z,98248.50
2024-01-14T15:33:55.777Z,98248.81
2024-01-14T15:36:44.146Z,98236.69
2024-01-14T15:39:30.950Z,98237.75
2024-01-14T15:42:17.700Z,98226.41
2024-01-14T15:45:05.976Z,98226.03
2024-01-14T15:47:52.965Z,98224.25
2024-01-14T15:50:41.090Z,98224.13
2024-01-14T15:53:31.147Z,98215.06
2024-01-14T15:56:18.022Z,98208.34
2024-01-14T15:59:05.091Z,98198.28
2024-01-14T16:01:51.797Z,98197.28
2024-01-14T16:04:38.744Z,98200.00
2024-01-14T16:07:25.653Z,98201.25
2024-01-14T16:10:15.891Z,98197.69
2024-01-14T16:13:04.578Z,98189.53
2024-01-14T16:15:51.521Z,98180.91
2024-01-14T16:18:38.254Z,98179.34
2024-01-14T16:21:26.031Z,98173.94
2024-01-14T16:24:12.844Z,98171.50
2024-01-14T16:27:01.061Z,98163.84
2024-01-14T16:29:47.666Z,98163.63
2024-01-14T16:32:34.689Z,98156.38
2024-01-14T16:35:21.744Z,98164.88
2024-01-14T16:38:08.630Z,98162.44
2024-01-14T16:41:03.066Z,98158.06
2024-01-14T16:43:53.340Z,98155.53
2024-01-14T16:46:42.122Z,98158.16
2024-01-14T16:49:29.175Z,98154.47
2024-01-14T16:52:16.081Z,98147.84
2024-01-14T16:55:03.039Z,98150.13
2024-01-14T16:57:49.957Z,98138.81
2024-01-14T17:00:38.562Z,98140.22
2024-01-14T17:03:25.611Z,98135.84
2024-01-14T17:06:15.234Z,98136.88
2024-01-14T17:09:05.625Z,98136.75
2024-01-14T17:11:52.258Z,98129.94
2024-01-14T17:14:39.108Z,98126.94
2024-01-14T17:17:27.561Z,98119.34
2024-01-14T17:20:15.822Z,98112.84
2024-01-14T17:23:02.672Z,98111.47
2024-01-14T17:25:53.344Z,98111.03
2024-01-14T17:28:47.008Z,98110.63
2024-01-14T17:31:34.141Z,98114.19
2024-01-14T17:34:22.202Z,98099.41
2024-01-14T17:37:09.304Z,98108.28
2024-01-14T17:39:56.139Z,98103.13
2024-01-14T17:42:42.752Z,98095.59
2024-01-14T17:45:29.701Z,98089.28
2024-01-14T17:48:16.775Z,98084.69
2024-01-14T17:51:05.453Z,98077.28
2024-01-14T17:53:52.626Z,98079.25
2024-01-14T17:56:39.385Z,98069.94
2024-01-14T17:59:26.000Z,98069.47
2024-01-14T18:02:13.503Z,98074.13
2024-01-14T18:05:00.330Z,98060.13
2024-01-14T18:07:49.383Z,98059.63
2024-01-14T18:10:35.759Z,98063.69
2024-01-14T18:13:22.887Z,98063.06
2024-01-14T18:16:09.626Z,98054.03
2024-01-14T18:18:56.715Z,98057.00
2024-01-14T18:21:43.552Z,98056.94
2024-01-14T18:24:31.806Z,98053.53
2024-01-14T18:27:18.537Z,98047.19
2024-01-14T18:30:05.962Z,98041.34
2024-01-14T18:33:04.234Z,98032.47
2024-01-14T18:35:57.116Z,98036.41
2024-01-14T18:38:44.100Z,98024.25
2024-01-14T18:41:32.426Z,98013.84
2024-01-14T18:44:19.265Z,98020.09
2024-01-14T18:47:06.525Z,98016.44
2024-01-14T18:49:53.648Z,98006.66
2024-01-14T18:52:40.248Z,98004.63
2024-01-14T18:55:27.250Z,98011.50
2024-01-14T18:58:17.197Z,98003.78
2024-01-14T19:01:04.173Z,98009.06
2024-01-14T19:03:51.046Z,98015.09
2024-01-14T19:06:38.112Z,98012.16
2024-01-14T19:09:25.157Z,98019.75
2024-01-14T19:12:12.233Z,98020.88
2024-01-14T19:15:00.851Z,98012.31
2024-01-14T19:17:49.062Z,98009.97
2024-01-14T19:20:35.933Z,98009.41
2024-01-14T19:23:22.748Z,98005.03
2024-01-14T19:26:09.623Z,98005.97
2024-01-14T19:28:56.601Z,97993.97
2024-01-14T19:31:47.027Z,97994.25
2024-01-14T19:34:33.556Z,97984.25
2024-01-14T19:37:22.482Z,97986.69
2024-01-14T19:40:10.028Z,97988.94
2024-01-14T19:42:57.170Z,97985.06
2024-01-14T19:45:44.444Z,97985.34
2024-01-14T19:48:32.441Z,98002.97
2024-01-14T19:51:18.910Z,97998.97
2024-01-14T19:54:06.633Z,97992.25
2024-01-14T19:56:54.209Z,97991.84
2024-01-14T19:59:42.104Z,97983.19
2024-01-14T20:02:28.733Z,97983.00
2024-01-14T20:05:17.348Z,97978.03
2024-01-14T20:08:04.747Z,97972.28
2024-01-14T20:10:51.657Z,97972.34
2024-01-14T20:13:38.507Z,97965.75
2024-01-14T20:16:25.461Z,97964.03
2024-01-14T20:19:12.302Z,97954.63
2024-01-14T20:22:00.486Z,97959.81
2024-01-14T20:24:47.264Z,97958.69
2024-01-14T20:27:34.329Z,97956.06
2024-01-14T20:30:22.178Z,97953.97
2024-01-14T20:33:09.180Z,97946.22
2024-01-14T20:35:56.066Z,97948.00
2024-01-14T20:38:43.961Z,97939.03
2024-01-14T20:41:30.580Z,97931.34
2024-01-14T20:44:17.492Z,97934.34
2024-01-14T20:47:04.524Z,97928.53
2024-01-14T20:49:51.475Z,97935.00
2024-01-14T20:52:38.763Z,97922.97
2024-01-14T20:55:26.743Z,97913.00
2024-01-14T20:58:14.520Z,97924.88
2024-01-14T21:01:05.181Z,97925.13
2024-01-14T21:03:53.057Z,97924.19
2024-01-14T21:06:40.150Z,97925.63
2024-01-14T21:09:27.158Z,97907.69
2024-01-14T21:12:15.273Z,97908.97
2024-01-14T21:15:03.622Z,97894.50
2024-01-14T21:17:50.487Z,97895.81
2024-01-14T21:20:37.422Z,97899.44
2024-01-14T21:23:24.371Z,97887.50
2024-01-14T21:26:11.760Z,97883.09
2024-01-14T21:29:03.228Z,97876.38
2024-01-14T21:31:50.141Z,97877.09
2024-01-14T21:34:37.118Z,97878.44
2024-01-14T21:37:24.332Z,97880.34
2024-01-14T21:40:12.021Z,97889.81
2024-01-14T21:42:58.572Z,97885.25
2024-01-14T21:45:46.880Z,97900.91
2024-01-14T21:48:33.941Z,97887.13
2024-01-14T21:51:20.431Z,97891.47
2024-01-14T21:54:07.431Z,97889.81
2024-01-14T21:56:54.130Z,97887.22
2024-01-14T21:59:41.156Z,97889.09
2024-01-14T22:02:29.454Z,97889.25
2024-01-14T22:05:16.632Z,97880.69
2024-01-14T22:08:03.576Z,97882.53
2024-01-14T22:10:50.107Z,97879.47
2024-01-14T22:13:37.417Z,97887.19
2024-01-14T22:16:24.434Z,97878.78
2024-01-14T22:19:12.874Z,97878.66
2024-01-14T22:21:59.354Z,97873.94
2024-01-14T22:24:46.680Z,97876.50
2024-01-14T22:27:33.604Z,97879.69
2024-01-14T22:30:20.452Z,97880.44
2024-01-14T22:33:07.493Z,97873.09
2024-01-14T22:35:57.631Z,97870.56
2024-01-14T22:38:44.669Z,97876.31
2024-01-14T22:41:31.353Z,97883.50
2024-01-14T22:44:18.427Z,97884.22
2024-01-14T22:47:05.791Z,97874.47
2024-01-14T22:49:52.912Z,97878.47
2024-01-14T22:52:41.105Z,97879.84
2024-01-14T22:55:27.736Z,97881.50
2024-01-14T22:58:14.757Z,97886.34
2024-01-14T23:01:01.633Z,97890.88
2024-01-14T23:03:50.947Z,97876.47
2024-01-14T23:06:37.777Z,97881.44
2024-01-14T23:09:25.828Z,97875.78
2024-01-14T23:12:12.612Z,97868.34
2024-01-14T23:14:59.597Z,97883.06
2024-01-14T23:17:46.664Z,97859.25
2024-01-14T23:20:33.451Z,97867.16
2024-01-14T23:23:20.527Z,97861.56
2024-01-14T23:26:08.713Z,97861.25
2024-01-14T23:28:55.599Z,97854.50
2024-01-14T23:31:42.668Z,97854.88
2024-01-14T23:34:29.577Z,97848.09
2024-01-14T23:37:16.363Z,97850.59
2024-01-14T23:40:03.203Z,97855.78
2024-01-14T23:42:51.579Z,97857.09
2024-01-14T23:45:39.948Z,97854.03
2024-01-14T23:48:26.693Z,97847.94
2024-01-14T23:51:13.430Z,97848.09
2024-01-14T23:54:00.318Z,97841.03
2024-01-14T23:56:46.907Z,97832.47
2024-01-14T23:59:34.714Z,97834.31
